createdAt,value
2023-01-01T00:01:26.728Z,100215.47
2023-01-01T00:03:58.407Z,100214.05
2023-01-01T00:06:27.154Z,100214.77
2023-01-01T00:09:14.039Z,100210.14
2023-01-01T00:11:42.341Z,100213.27
2023-01-01T00:14:12.690Z,100224.92
2023-01-01T00:16:41.268Z,100239.40
2023-01-01T00:19:09.715Z,100245.27
2023-01-01T00:21:38.161Z,100257.52
2023-01-01T00:24:07.937Z,100261.04
2023-01-01T00:26:36.376Z,100261.41
2023-01-01T00:29:05.594Z,100264.55
2023-01-01T00:31:34.875Z,100263.45
2023-01-01T00:34:03.482Z,100257.95
2023-01-01T00:36:31.917Z,100257.49
2023-01-01T00:39:02.873Z,100258.52
2023-01-01T00:41:31.273Z,100254.30
2023-01-01T00:43:59.699Z,100251.69
2023-01-01T00:46:28.132Z,100258.23
2023-01-01T00:48:56.609Z,100259.62
2023-01-01T00:51:24.902Z,100254.38
2023-01-01T00:53:53.265Z,100258.43
2023-01-01T00:56:21.634Z,100262.01
2023-01-01T00:59:00.614Z,100263.99
2023-01-01T01:01:30.526Z,100264.12
2023-01-01T01:03:58.951Z,100265.25
2023-01-01T01:06:27.303Z,100273.70
2023-01-01T01:08:55.645Z,100278.27
2023-01-01T01:11:25.974Z,100282.39
2023-01-01T01:13:56.786Z,100287.45
2023-01-01T01:16:34.108Z,100284.35
2023-01-01T01:19:05.473Z,100283.36
2023-01-01T01:21:35.161Z,100284.96
2023-01-01T01:24:04.199Z,100286.95
2023-01-01T01:26:34.546Z,100287.30
2023-01-01T01:29:03.815Z,100284.58
2023-01-01T01:31:34.530Z,100286.41
2023-01-01T01:34:02.973Z,100286.88
2023-01-01T01:36:31.280Z,100290.17
2023-01-01T01:39:00.232Z,100290.66
2023-01-01T01:41:29.313Z,100295.08
2023-01-01T01:44:03.835Z,100294.05
2023-01-01T01:46:44.529Z,100289.69
2023-01-01T01:49:26.285Z,100298.46
2023-01-01T01:51:56.091Z,100297.97
2023-01-01T01:54:27.797Z,100301.44
2023-01-01T01:57:02.347Z,100301.38
2023-01-01T01:59:36.173Z,100297.14
2023-01-01T02:02:15.670Z,100299.84
2023-01-01T02:04:44.589Z,100309.63
2023-01-01T02:07:14.937Z,100315.61
2023-01-01T02:09:43.838Z,100312.41
2023-01-01T02:12:12.640Z,100310.87
2023-01-01T02:14:40.941Z,100311.49
2023-01-01T02:17:27.716Z,100310.48
2023-01-01T02:20:13.095Z,100311.35
2023-01-01T02:23:10.151Z,100309.73
2023-01-01T02:25:56.824Z,100315.73
2023-01-01T02:29:01.190Z,100322.98
2023-01-01T02:31:38.334Z,100319.20
2023-01-01T02:34:12.619Z,100323.09
2023-01-01T02:36:50.193Z,100315.84
2023-01-01T02:39:22.718Z,100325.73
2023-01-01T02:41:55.300Z,100330.60
2023-01-01T02:44:26.917Z,100329.35
2023-01-01T02:46:55.241Z,100329.59
2023-01-01T02:49:25.755Z,100331.14
2023-01-01T02:52:09.356Z,100333.45
2023-01-01T02:54:42.142Z,100333.17
2023-01-01T02:57:32.415Z,100334.15
2023-01-01T03:00:31.518Z,100329.55
2023-01-01T03:03:36.796Z,100321.83
2023-01-01T03:06:23.664Z,100322.04
2023-01-01T03:09:26.977Z,100316.92
2023-01-01T03:12:09.933Z,100312.77
2023-01-01T03:15:11.076Z,100308.84
2023-01-01T03:17:58.713Z,100312.80
2023-01-01T03:20:32.617Z,100311.10
2023-01-01T03:23:13.996Z,100313.55
2023-01-01T03:25:50.954Z,100323.59
2023-01-01T03:28:33.685Z,100324.63
2023-01-01T03:31:02.965Z,100324.65
2023-01-01T03:33:44.913Z,100328.64
2023-01-01T03:36:22.945Z,100333.59
2023-01-01T03:39:30.335Z,100334.65
2023-01-01T03:42:27.344Z,100341.84
2023-01-01T03:45:20.074Z,100344.01
2023-01-01T03:47:48.965Z,100342.06
2023-01-01T03:50:18.152Z,100354.44
2023-01-01T03:53:19.897Z,100356.69
2023-01-01T03:56:45.616Z,100356.90
2023-01-01T03:59:25.338Z,100366.56
2023-01-01T04:01:58.657Z,100369.92
2023-01-01T04:04:27.430Z,100376.89
2023-01-01T04:06:57.862Z,100379.21
2023-01-01T04:09:33.248Z,100378.94
2023-01-01T04:12:01.998Z,100386.90
2023-01-01T04:14:42.280Z,100384.86
2023-01-01T04:17:12.591Z,100384.54
2023-01-01T04:19:40.951Z,100381.38
2023-01-01T04:22:09.364Z,100389.89
2023-01-01T04:24:37.734Z,100391.32
2023-01-01T04:27:06.085Z,100392.51
2023-01-01T04:29:35.800Z,100394.65
2023-01-01T04:32:04.350Z,100390.79
2023-01-01T04:34:32.718Z,100391.26
2023-01-01T04:37:00.993Z,100395.23
2023-01-01T04:39:29.277Z,100397.54
2023-01-01T04:41:57.573Z,100400.67
2023-01-01T04:44:25.895Z,100407.64
2023-01-01T04:46:58.411Z,100407.95
2023-01-01T04:49:28.520Z,100415.13
2023-01-01T04:51:56.869Z,100421.77
2023-01-01T04:54:25.178Z,100424.59
2023-01-01T04:56:53.503Z,100432.35
2023-01-01T04:59:22.053Z,100428.95
2023-01-01T05:01:50.637Z,100425.98
2023-01-01T05:04:19.076Z,100423.67
2023-01-01T05:06:47.349Z,100427.09
2023-01-01T05:09:15.840Z,100432.36
2023-01-01T05:11:44.327Z,100441.29
2023-01-01T05:14:12.873Z,100438.67
2023-01-01T05:16:41.507Z,100440.58
2023-01-01T05:19:10.606Z,100438.56
2023-01-01T05:21:40.694Z,100435.34
2023-01-01T05:24:10.602Z,100429.55
2023-01-01T05:26:45.139Z,100430.36
2023-01-01T05:29:16.834Z,100423.75
2023-01-01T05:31:46.637Z,100431.61
2023-01-01T05:34:15.189Z,100433.34
2023-01-01T05:36:43.579Z,100440.11
2023-01-01T05:39:12.992Z,100436.63
2023-01-01T05:41:41.659Z,100437.44
2023-01-01T05:44:11.617Z,100434.16
2023-01-01T05:46:40.072Z,100441.00
2023-01-01T05:49:12.879Z,100439.96
2023-01-01T05:56:37.657Z,100442.27
2023-01-01T05:59:06.045Z,100443.89
2023-01-01T06:01:38.784Z,100445.73
2023-01-01T06:04:11.650Z,100440.43
2023-01-01T06:06:40.077Z,100448.26
2023-01-01T06:09:10.767Z,100451.98
2023-01-01T06:11:39.283Z,100445.43
2023-01-01T06:14:07.616Z,100441.84
2023-01-01T06:16:36.087Z,100446.31
2023-01-01T06:19:04.571Z,100445.41
2023-01-01T06:21:32.905Z,100443.88
2023-01-01T06:24:01.438Z,100448.30
2023-01-01T06:26:32.963Z,100443.33
2023-01-01T06:29:03.010Z,100445.70
2023-01-01T06:31:38.354Z,100443.23
2023-01-01T06:34:09.476Z,100439.70
2023-01-01T06:36:37.824Z,100442.86
2023-01-01T06:39:06.294Z,100441.34
2023-01-01T06:41:34.712Z,100444.55
2023-01-01T06:44:03.558Z,100440.48
2023-01-01T06:46:35.593Z,100447.78
2023-01-01T06:49:11.519Z,100443.23
2023-01-01T06:51:43.343Z,100442.17
2023-01-01T06:54:11.875Z,100442.96
2023-01-01T06:56:40.322Z,100446.28
2023-01-01T06:59:08.727Z,100445.04
2023-01-01T07:01:43.844Z,100450.92
2023-01-01T07:04:16.619Z,100453.64
2023-01-01T07:06:45.007Z,100455.94
2023-01-01T07:09:13.379Z,100460.52
2023-01-01T07:11:42.139Z,100464.90
2023-01-01T07:14:10.454Z,100470.64
2023-01-01T07:16:38.982Z,100470.08
2023-01-01T07:19:07.481Z,100473.22
2023-01-01T07:21:51.145Z,100472.58
2023-01-01T07:24:20.993Z,100475.48
2023-01-01T07:26:49.360Z,100479.33
2023-01-01T07:29:17.951Z,100482.39
2023-01-01T07:31:46.352Z,100482.27
2023-01-01T07:34:19.134Z,100486.80
2023-01-01T07:36:47.607Z,100492.34
2023-01-01T07:42:41.636Z,100491.77
2023-01-01T07:45:13.464Z,100492.34
2023-01-01T07:47:41.810Z,100496.77
2023-01-01T07:50:18.217Z,100496.71
2023-01-01T07:52:46.579Z,100498.70
2023-01-01T07:55:18.505Z,100500.52
2023-01-01T07:57:48.290Z,100497.16
2023-01-01T08:00:20.462Z,100493.22
2023-01-01T08:02:49.901Z,100495.31
2023-01-01T08:05:24.319Z,100496.45
2023-01-01T08:07:55.056Z,100497.02
2023-01-01T08:10:23.616Z,100495.95
2023-01-01T08:12:52.032Z,100493.04
2023-01-01T08:15:20.280Z,100489.45
2023-01-01T08:17:48.610Z,100488.38
2023-01-01T08:20:17.012Z,100489.43
2023-01-01T08:22:45.565Z,100490.14
2023-01-01T08:25:14.147Z,100496.54
2023-01-01T08:27:42.461Z,100494.63
2023-01-01T08:30:14.505Z,100498.47
2023-01-01T08:32:43.189Z,100500.13
2023-01-01T08:35:11.515Z,100496.58
2023-01-01T08:37:39.906Z,100499.16
2023-01-01T08:40:12.491Z,100504.44
2023-01-01T08:42:40.782Z,100506.34
2023-01-01T08:45:09.786Z,100506.30
2023-01-01T08:47:38.206Z,100513.51
2023-01-01T08:50:07.816Z,100515.01
2023-01-01T08:52:36.233Z,100523.64
2023-01-01T08:55:05.023Z,100523.67
2023-01-01T08:57:33.339Z,100526.33
2023-01-01T09:00:01.716Z,100520.61
2023-01-01T09:02:30.184Z,100520.66
2023-01-01T09:04:58.593Z,100528.88
2023-01-01T09:07:26.964Z,100528.52
2023-01-01T09:09:55.489Z,100526.61
2023-01-01T09:12:23.962Z,100532.36
2023-01-01T09:14:52.278Z,100533.20
2023-01-01T09:17:20.747Z,100533.79
2023-01-01T09:19:49.057Z,100533.58
2023-01-01T09:22:17.389Z,100533.44
2023-01-01T09:24:45.678Z,100533.77
2023-01-01T09:27:14.129Z,100529.92
2023-01-01T09:29:42.434Z,100531.70
2023-01-01T09:32:10.902Z,100525.80
2023-01-01T09:34:39.329Z,100525.16
2023-01-01T09:37:07.657Z,100521.57
2023-01-01T09:39:35.982Z,100525.48
2023-01-01T09:42:16.923Z,100523.44
2023-01-01T09:45:18.674Z,100520.05
2023-01-01T09:47:51.636Z,100525.88
2023-01-01T09:50:45.973Z,100526.99
2023-01-01T09:53:39.471Z,100523.47
2023-01-01T09:56:25.761Z,100516.84
2023-01-01T09:58:56.877Z,100517.58
2023-01-01T10:02:04.305Z,100518.09
2023-01-01T10:05:28.309Z,100518.33
2023-01-01T10:08:23.265Z,100514.93
2023-01-01T10:11:16.261Z,100518.63
2023-01-01T10:13:46.639Z,100511.86
2023-01-01T10:16:38.246Z,100520.86
2023-01-01T10:19:20.599Z,100518.36
2023-01-01T10:21:52.594Z,100515.77
2023-01-01T10:24:58.329Z,100518.37
2023-01-01T10:27:26.986Z,100506.46
2023-01-01T10:30:03.247Z,100509.41
2023-01-01T10:32:36.532Z,100517.78
2023-01-01T10:35:17.844Z,100514.73
2023-01-01T10:37:46.489Z,100516.14
2023-01-01T10:40:26.552Z,100522.11
2023-01-01T10:43:01.496Z,100520.88
2023-01-01T10:45:38.450Z,100517.36
2023-01-01T10:48:19.467Z,100516.08
2023-01-01T10:51:05.528Z,100514.98
2023-01-01T10:53:50.951Z,100512.84
2023-01-01T10:56:22.675Z,100517.75
2023-01-01T10:58:54.828Z,100516.24
2023-01-01T11:01:29.076Z,100527.23
2023-01-01T11:04:02.056Z,100526.38
2023-01-01T11:06:42.563Z,100531.53
2023-01-01T11:09:26.624Z,100528.29
2023-01-01T11:12:11.941Z,100520.09
2023-01-01T11:14:55.104Z,100512.86
2023-01-01T11:17:33.157Z,100508.29
2023-01-01T11:20:04.302Z,100504.55
2023-01-01T11:22:51.554Z,100512.70
2023-01-01T11:25:33.169Z,100511.84
2023-01-01T11:28:31.707Z,100511.50
2023-01-01T11:31:10.662Z,100515.27
2023-01-01T11:33:49.292Z,100510.38
2023-01-01T11:36:43.832Z,100514.15
2023-01-01T11:39:26.946Z,100518.42
2023-01-01T11:41:57.953Z,100520.09
2023-01-01T11:44:45.832Z,100518.92
2023-01-01T11:47:28.948Z,100518.84
2023-01-01T11:50:31.750Z,100513.27
2023-01-01T11:53:23.291Z,100505.52
2023-01-01T11:56:15.264Z,100512.83
2023-01-01T11:59:25.367Z,100518.06
2023-01-01T12:02:04.454Z,100524.48
2023-01-01T12:04:54.168Z,100525.63
2023-01-01T12:07:31.765Z,100533.80
2023-01-01T12:10:27.010Z,100522.23
2023-01-01T12:13:17.506Z,100527.73
2023-01-01T12:16:07.238Z,100527.33
2023-01-01T12:18:47.533Z,100526.65
2023-01-01T12:21:49.021Z,100523.33
2023-01-01T12:24:21.395Z,100523.40
2023-01-01T12:27:10.686Z,100525.44
2023-01-01T12:30:15.906Z,100519.68
2023-01-01T12:33:08.475Z,100516.59
2023-01-01T12:36:21.297Z,100514.09
2023-01-01T12:39:30.392Z,100505.67
2023-01-01T12:42:46.039Z,100506.64
2023-01-01T12:45:56.574Z,100508.80
2023-01-01T12:48:59.106Z,100513.98
2023-01-01T12:51:44.771Z,100517.15
2023-01-01T12:55:04.433Z,100510.24
2023-01-01T12:57:41.598Z,100512.48
2023-01-01T13:00:17.522Z,100510.72
2023-01-01T13:03:00.438Z,100510.31
2023-01-01T13:05:43.149Z,100514.19
2023-01-01T13:08:11.582Z,100513.91
2023-01-01T13:10:45.152Z,100516.17
2023-01-01T13:13:14.853Z,100518.39
2023-01-01T13:16:03.698Z,100525.27
2023-01-01T13:18:35.234Z,100528.59
2023-01-01T13:21:17.358Z,100530.70
2023-01-01T13:23:46.919Z,100530.33
2023-01-01T13:26:18.264Z,100529.07
2023-01-01T13:29:12.329Z,100532.31
2023-01-01T13:31:41.065Z,100532.97
2023-01-01T13:34:38.223Z,100530.52
2023-01-01T13:37:17.347Z,100537.05
2023-01-01T13:40:01.574Z,100533.30
2023-01-01T13:42:59.113Z,100538.84
2023-01-01T13:49:02.779Z,100543.00
2023-01-01T13:52:08.313Z,100547.41
2023-01-01T13:55:11.314Z,100554.23
2023-01-01T13:57:58.331Z,100559.38
2023-01-01T14:00:54.307Z,100555.73
2023-01-01T14:03:26.265Z,100557.49
2023-01-01T14:06:01.811Z,100568.89
2023-01-01T14:08:37.558Z,100570.48
2023-01-01T14:11:24.185Z,100572.44
2023-01-01T14:13:52.453Z,100572.14
2023-01-01T14:16:21.079Z,100571.09
2023-01-01T14:18:58.184Z,100570.39
2023-01-01T14:21:34.523Z,100576.20
2023-01-01T14:24:06.439Z,100575.88
2023-01-01T14:26:39.050Z,100581.26
2023-01-01T14:29:10.734Z,100586.98
2023-01-01T14:31:45.472Z,100578.20
2023-01-01T14:34:32.923Z,100577.57
2023-01-01T14:37:04.565Z,100577.85
2023-01-01T14:39:37.476Z,100577.98
2023-01-01T14:42:15.994Z,100582.95
2023-01-01T14:44:49.083Z,100587.79
2023-01-01T14:47:32.352Z,100595.48
2023-01-01T14:50:27.901Z,100592.82
2023-01-01T14:53:07.027Z,100596.08
2023-01-01T14:55:42.824Z,100590.98
2023-01-01T14:58:23.365Z,100594.98
2023-01-01T15:00:52.668Z,100602.41
2023-01-01T15:03:23.303Z,100606.77
2023-01-01T15:06:01.305Z,100607.30
2023-01-01T15:08:30.024Z,100608.30
2023-01-01T15:10:58.816Z,100610.23
2023-01-01T15:13:28.665Z,100612.58
2023-01-01T15:16:18.730Z,100622.77
2023-01-01T15:18:50.831Z,100623.27
2023-01-01T15:21:31.551Z,100627.64
2023-01-01T15:24:05.504Z,100632.55
2023-01-01T15:26:48.364Z,100636.36
2023-01-01T15:29:27.413Z,100639.48
2023-01-01T15:32:06.510Z,100643.33
2023-01-01T15:34:43.956Z,100644.89
2023-01-01T15:37:22.903Z,100640.67
2023-01-01T15:40:22.749Z,100644.65
2023-01-01T15:42:57.191Z,100649.59
2023-01-01T15:45:25.495Z,100651.56
2023-01-01T15:48:06.196Z,100653.48
2023-01-01T15:51:00.742Z,100652.63
2023-01-01T15:54:05.057Z,100649.63
2023-01-01T15:56:40.109Z,100654.34
2023-01-01T15:59:33.417Z,100655.92
2023-01-01T16:02:32.024Z,100658.86
2023-01-01T16:05:00.725Z,100660.23
2023-01-01T16:07:29.230Z,100663.53
2023-01-01T16:09:58.376Z,100663.64
2023-01-01T16:12:27.014Z,100665.80
2023-01-01T16:14:55.362Z,100667.20
2023-01-01T16:17:23.672Z,100669.14
2023-01-01T16:19:52.420Z,100672.40
2023-01-01T16:22:20.833Z,100672.56
2023-01-01T16:24:49.156Z,100677.02
2023-01-01T16:27:17.498Z,100677.98
2023-01-01T16:29:52.724Z,100676.83
2023-01-01T16:32:22.912Z,100684.65
2023-01-01T16:34:51.236Z,100694.77
2023-01-01T16:37:22.683Z,100692.34
2023-01-01T16:49:06.683Z,100697.10
2023-01-01T16:51:35.323Z,100701.96
2023-01-01T16:54:04.054Z,100701.50
2023-01-01T16:56:32.642Z,100697.76
2023-01-01T16:59:03.484Z,100698.98
2023-01-01T17:01:32.634Z,100697.23
2023-01-01T17:04:01.312Z,100704.11
2023-01-01T17:06:29.603Z,100708.79
2023-01-01T17:09:00.783Z,100716.08
2023-01-01T17:11:29.149Z,100724.19
2023-01-01T17:13:59.645Z,100724.27
2023-01-01T17:16:32.930Z,100728.13
2023-01-01T17:19:20.359Z,100725.34
2023-01-01T17:21:49.134Z,100729.34
2023-01-01T17:24:20.466Z,100727.69
2023-01-01T17:26:54.679Z,100723.43
2023-01-01T17:29:24.515Z,100721.18
2023-01-01T17:31:53.089Z,100720.70
2023-01-01T17:34:21.485Z,100724.02
2023-01-01T17:36:49.855Z,100729.61
2023-01-01T17:39:18.254Z,100728.30
2023-01-01T17:41:46.787Z,100737.17
2023-01-01T17:44:15.119Z,100737.80
2023-01-01T17:46:44.500Z,100739.84
2023-01-01T17:49:13.208Z,100742.86
2023-01-01T17:51:41.649Z,100740.70
2023-01-01T17:54:13.296Z,100741.34
2023-01-01T17:56:42.259Z,100741.56
2023-01-01T17:59:10.938Z,100739.65
2023-01-01T18:01:39.414Z,100740.58
2023-01-01T18:04:10.138Z,100738.06
2023-01-01T18:06:43.067Z,100736.11
2023-01-01T18:09:14.272Z,100739.58
2023-01-01T18:11:45.054Z,100732.52
2023-01-01T18:14:16.365Z,100729.51
2023-01-01T18:16:48.134Z,100728.46
2023-01-01T18:19:16.867Z,100734.58
2023-01-01T18:21:45.263Z,100737.70
2023-01-01T18:24:15.810Z,100738.63
2023-01-01T18:26:44.325Z,100738.75
2023-01-01T18:29:13.071Z,100741.42
2023-01-01T18:31:41.684Z,100743.12
2023-01-01T18:34:10.978Z,100744.14
2023-01-01T18:36:39.766Z,100738.89
2023-01-01T18:39:30.486Z,100737.73
2023-01-01T18:42:29.560Z,100734.98
2023-01-01T18:45:21.004Z,100737.23
2023-01-01T18:47:50.174Z,100739.36
2023-01-01T18:50:27.735Z,100734.45
2023-01-01T18:53:09.539Z,100736.48
2023-01-01T18:55:37.849Z,100745.74
2023-01-01T18:58:25.088Z,100738.42
2023-01-01T19:00:54.834Z,100733.86
2023-01-01T19:03:28.383Z,100745.66
2023-01-01T19:05:59.726Z,100755.63
2023-01-01T19:08:29.875Z,100763.46
2023-01-01T19:11:02.131Z,100763.73
2023-01-01T19:13:37.024Z,100766.54
2023-01-01T19:16:11.611Z,100765.02
2023-01-01T19:18:46.068Z,100765.55
2023-01-01T19:21:14.444Z,100768.35
2023-01-01T19:23:52.476Z,100763.76
2023-01-01T19:26:41.566Z,100767.13
2023-01-01T19:29:21.016Z,100769.83
2023-01-01T19:31:52.140Z,100770.08
2023-01-01T19:34:21.710Z,100770.50
2023-01-01T19:36:50.580Z,100773.32
2023-01-01T19:39:19.525Z,100767.39
2023-01-01T19:41:47.959Z,100768.80
2023-01-01T19:44:21.326Z,100773.23
2023-01-01T19:46:51.502Z,100772.94
2023-01-01T19:49:19.969Z,100779.09
2023-01-01T19:51:48.629Z,100777.02
2023-01-01T19:54:17.092Z,100770.32
2023-01-01T19:56:46.947Z,100776.48
2023-01-01T19:59:15.289Z,100781.44
2023-01-01T20:01:43.770Z,100774.69
2023-01-01T20:04:12.351Z,100776.98
2023-01-01T20:06:40.749Z,100772.00
2023-01-01T20:09:09.095Z,100768.77
2023-01-01T20:11:37.443Z,100767.81
2023-01-01T20:14:05.757Z,100764.44
2023-01-01T20:16:36.311Z,100765.20
2023-01-01T20:19:04.714Z,100769.36
2023-01-01T20:21:51.917Z,100764.66
2023-01-01T20:24:20.311Z,100769.79
2023-01-01T20:26:48.677Z,100771.87
2023-01-01T20:29:19.923Z,100770.73
2023-01-01T20:31:52.962Z,100775.65
2023-01-01T20:34:22.897Z,100777.17
2023-01-01T20:37:10.045Z,100772.51
2023-01-01T20:39:38.952Z,100776.27
2023-01-01T20:42:07.452Z,100775.11
2023-01-01T20:44:35.931Z,100776.05
2023-01-01T20:47:04.417Z,100777.51
2023-01-01T20:49:32.887Z,100779.27
2023-01-01T20:52:01.672Z,100782.48
2023-01-01T20:54:29.982Z,100781.20
2023-01-01T20:56:58.500Z,100778.66
2023-01-01T20:59:36.549Z,100777.65
2023-01-01T21:02:09.287Z,100780.34
2023-01-01T21:04:39.928Z,100783.56
2023-01-01T21:07:11.501Z,100781.14
2023-01-01T21:09:41.501Z,100784.64
2023-01-01T21:12:10.409Z,100792.26
2023-01-01T21:14:39.021Z,100782.16
2023-01-01T21:17:24.641Z,100783.86
2023-01-01T21:19:59.232Z,100783.00
2023-01-01T21:22:27.882Z,100777.65
2023-01-01T21:25:16.782Z,100778.76
2023-01-01T21:27:45.631Z,100777.27
2023-01-01T21:30:14.814Z,100775.92
2023-01-01T21:32:47.382Z,100778.83
2023-01-01T21:35:23.170Z,100775.62
2023-01-01T21:37:58.241Z,100766.14
2023-01-01T21:40:33.719Z,100767.35
2023-01-01T21:43:02.009Z,100762.14
2023-01-01T21:45:48.970Z,100762.59
2023-01-01T21:48:42.305Z,100764.38
2023-01-01T21:51:24.679Z,100766.89
2023-01-01T21:54:28.213Z,100772.02
2023-01-01T21:57:02.589Z,100777.11
2023-01-01T21:59:39.895Z,100771.21
2023-01-01T22:02:29.119Z,100772.54
2023-01-01T22:05:02.463Z,100774.09
2023-01-01T22:10:34.374Z,100776.69
2023-01-01T22:13:03.353Z,100779.73
2023-01-01T22:15:40.306Z,100783.16
2023-01-01T22:18:11.469Z,100786.02
2023-01-01T22:20:42.969Z,100782.48
2023-01-01T22:23:24.332Z,100778.06
2023-01-01T22:25:53.742Z,100772.27
2023-01-01T22:28:31.953Z,100777.38
2023-01-01T22:31:02.166Z,100776.06
2023-01-01T22:33:41.898Z,100779.38
2023-01-01T22:36:25.423Z,100778.14
2023-01-01T22:39:15.816Z,100774.88
2023-01-01T22:41:44.178Z,100767.95
2023-01-01T22:44:12.611Z,100766.45
2023-01-01T22:46:41.829Z,100766.37
2023-01-01T22:49:23.857Z,100764.75
2023-01-01T22:51:56.335Z,100761.69
2023-01-01T22:54:24.709Z,100751.83
2023-01-01T22:56:53.047Z,100738.25
2023-01-01T22:59:21.363Z,100735.52
2023-01-01T23:01:50.923Z,100737.36
2023-01-01T23:04:19.395Z,100731.11
2023-01-01T23:06:47.828Z,100732.05
2023-01-01T23:09:16.143Z,100732.31
2023-01-01T23:11:44.735Z,100733.20
2023-01-01T23:14:35.601Z,100733.95
2023-01-01T23:17:07.708Z,100731.23
2023-01-01T23:19:36.014Z,100731.20
2023-01-01T23:22:04.521Z,100734.40
2023-01-01T23:24:33.789Z,100732.48
2023-01-01T23:27:02.941Z,100729.85
2023-01-01T23:29:33.298Z,100723.00
2023-01-01T23:32:03.145Z,100715.59
2023-01-01T23:34:31.562Z,100711.69
2023-01-01T23:37:01.118Z,100711.11
2023-01-01T23:39:29.397Z,100707.89
2023-01-01T23:41:58.007Z,100705.31
2023-01-01T23:44:26.749Z,100698.10
2023-01-01T23:46:58.239Z,100697.52
2023-01-01T23:49:27.852Z,100699.73
2023-01-01T23:51:59.367Z,100692.66
2023-01-01T23:54:29.746Z,100694.75
2023-01-01T23:56:58.065Z,100693.02
2023-01-01T23:59:27.989Z,100690.47
